createdAt,value
2022-11-27T00:02:22.332Z,100.00
2022-11-27T00:04:48.909Z,100.00
2022-11-27T00:07:15.573Z,100.00
2022-11-27T00:09:44.264Z,100.00
2022-11-27T00:12:11.163Z,100.00
2022-11-27T00:14:41.315Z,100.00
2022-11-27T00:17:08.159Z,100.00
2022-11-27T00:19:34.843Z,100.00
2022-11-27T00:22:01.760Z,100.00
2022-11-27T00:24:28.534Z,100.00
2022-11-27T00:26:55.191Z,100.00
2022-11-27T00:29:22.089Z,100.00
2022-11-27T00:31:48.767Z,100.00
2022-11-27T00:34:15.448Z,100.00
2022-11-27T00:36:46.585Z,100.00
2022-11-27T00:39:15.107Z,100.00
2022-11-27T00:41:41.708Z,100.00
2022-11-27T00:44:08.368Z,100.00
2022-11-27T00:46:35.535Z,100.00
2022-11-27T00:49:06.132Z,100.00
2022-11-27T00:51:33.157Z,100.00
2022-11-27T00:53:59.897Z,100.00
2022-11-27T00:56:29.572Z,100.00
2022-11-27T00:58:56.697Z,100.00
2022-11-27T01:01:31.038Z,100.00
2022-11-27T01:03:58.704Z,100.00
2022-11-27T01:06:28.768Z,100.00
2022-11-27T01:08:55.559Z,100.00
2022-11-27T01:11:28.204Z,100.00
2022-11-27T01:14:00.740Z,100.00
2022-11-27T01:16:28.894Z,100.00
2022-11-27T01:18:57.823Z,100.00
2022-11-27T01:21:25.988Z,100.00
2022-11-27T01:23:53.772Z,100.00
2022-11-27T01:26:23.635Z,100.00
2022-11-27T01:28:56.049Z,100.00
2022-11-27T01:31:25.761Z,100.00
2022-11-27T01:33:54.837Z,100.00
2022-11-27T01:36:21.978Z,100.00
2022-11-27T01:38:48.663Z,100.00
2022-11-27T01:41:18.922Z,100.00
2022-11-27T01:43:51.640Z,100.00
2022-11-27T01:46:36.644Z,100.00
2022-11-27T01:49:12.387Z,100.00
2022-11-27T01:51:47.373Z,100.00
2022-11-27T01:54:19.303Z,100.00
2022-11-27T01:56:49.096Z,100.00
2022-11-27T01:59:17.583Z,100.00
2022-11-27T02:01:44.298Z,100.00
2022-11-27T02:04:11.094Z,100.00
2022-11-27T02:06:37.709Z,100.00
2022-11-27T02:09:04.395Z,100.00
2022-11-27T02:12:11.424Z,100.00
2022-11-27T02:14:50.398Z,100.00
2022-11-27T02:17:34.092Z,100.00
2022-11-27T02:20:38.918Z,100.00
2022-11-27T02:23:14.600Z,100.00
2022-11-27T02:26:15.308Z,100.00
2022-11-27T02:29:04.295Z,100.00
2022-11-27T02:31:40.760Z,100.00
2022-11-27T02:34:10.555Z,100.00
2022-11-27T02:36:37.958Z,100.00
2022-11-27T02:39:12.356Z,100.00
2022-11-27T02:41:47.775Z,100.00
2022-11-27T02:44:15.206Z,100.00
2022-11-27T02:46:42.153Z,100.00
2022-11-27T02:49:12.087Z,100.00
2022-11-27T02:51:43.563Z,100.00
2022-11-27T02:54:14.065Z,100.00
2022-11-27T02:56:41.895Z,100.00
2022-11-27T02:59:11.969Z,100.00
2022-11-27T03:01:43.486Z,100.00
2022-11-27T03:04:14.882Z,100.00
2022-11-27T03:06:45.442Z,100.00
2022-11-27T03:09:25.552Z,100.00
2022-11-27T03:11:52.764Z,100.00
2022-11-27T03:14:24.421Z,100.00
2022-11-27T03:17:00.010Z,100.00
2022-11-27T03:19:31.472Z,100.00
2022-11-27T03:22:02.216Z,100.00
2022-11-27T03:24:30.478Z,100.00
2022-11-27T03:27:00.391Z,100.00
2022-11-27T03:29:55.924Z,100.00
2022-11-27T03:32:26.316Z,100.00
2022-11-27T03:34:53.259Z,100.00
2022-11-27T03:37:20.212Z,100.00
2022-11-27T03:39:47.344Z,100.00
2022-11-27T03:42:29.505Z,100.00
2022-11-27T03:45:11.342Z,100.00
2022-11-27T03:48:04.340Z,100.00
2022-11-27T03:50:55.842Z,100.00
2022-11-27T03:53:38.246Z,100.00
2022-11-27T03:56:24.717Z,100.00
2022-11-27T03:59:10.773Z,100.00
2022-11-27T04:01:37.622Z,100.00
2022-11-27T04:04:04.477Z,100.00
2022-11-27T04:06:31.144Z,100.00
2022-11-27T04:08:57.877Z,100.00
2022-11-27T04:11:24.444Z,100.00
2022-11-27T04:13:52.252Z,100.00
2022-11-27T04:16:26.561Z,100.00
2022-11-27T04:18:53.273Z,100.00
2022-11-27T04:21:20.704Z,100.00
2022-11-27T04:23:50.196Z,100.00
2022-11-27T04:26:17.060Z,100.00
2022-11-27T04:28:43.667Z,100.00
2022-11-27T04:31:10.356Z,100.00
2022-11-27T04:33:37.004Z,100.00
2022-11-27T04:36:03.827Z,100.00
2022-11-27T04:38:30.539Z,100.00
2022-11-27T04:41:00.278Z,100.00
2022-11-27T04:43:26.971Z,100.00
2022-11-27T04:45:53.585Z,100.00
2022-11-27T04:48:20.146Z,100.00
2022-11-27T04:50:46.770Z,100.00
2022-11-27T04:53:13.479Z,100.00
2022-11-27T04:55:40.215Z,100.00
2022-11-27T04:58:06.911Z,100.00
2022-11-27T05:00:33.774Z,100.00
2022-11-27T05:03:00.492Z,100.00
2022-11-27T05:05:32.202Z,100.00
2022-11-27T05:08:06.226Z,100.00
2022-11-27T05:10:32.813Z,100.00
2022-11-27T05:13:09.256Z,100.00
2022-11-27T05:15:35.886Z,100.00
2022-11-27T05:18:06.323Z,100.00
2022-11-27T05:20:45.169Z,100.00
2022-11-27T05:23:11.823Z,100.00
2022-11-27T05:25:39.109Z,100.00
2022-11-27T05:28:05.839Z,100.00
2022-11-27T05:30:40.014Z,100.00
2022-11-27T05:33:06.772Z,100.00
2022-11-27T05:35:33.596Z,100.00
2022-11-27T05:38:00.280Z,100.00
2022-11-27T05:40:29.644Z,100.00
2022-11-27T05:42:56.232Z,100.00
2022-11-27T05:45:22.807Z,100.00
2022-11-27T05:47:49.342Z,100.00
2022-11-27T05:50:15.979Z,100.00
2022-11-27T05:52:44.814Z,100.00
2022-11-27T05:55:11.449Z,100.00
2022-11-27T05:57:38.582Z,100.00
2022-11-27T06:00:06.816Z,100.00
2022-11-27T06:02:33.471Z,100.00
2022-11-27T06:05:00.100Z,100.00
2022-11-27T06:07:26.791Z,100.00
2022-11-27T06:09:53.520Z,100.00
2022-11-27T06:12:20.180Z,100.00
2022-11-27T06:14:46.759Z,100.00
2022-11-27T06:17:16.424Z,100.00
2022-11-27T06:19:43.221Z,100.00
2022-11-27T06:22:10.094Z,100.00
2022-11-27T06:24:38.330Z,100.00
2022-11-27T06:27:05.133Z,100.00
2022-11-27T06:29:31.749Z,100.00
2022-11-27T06:31:58.453Z,100.00
2022-11-27T06:34:25.042Z,100.00
2022-11-27T06:36:51.677Z,100.00
2022-11-27T06:39:18.263Z,100.00
2022-11-27T06:41:44.901Z,100.00
2022-11-27T06:44:11.530Z,100.00
2022-11-27T06:46:38.129Z,99.70
2022-11-27T06:49:04.812Z,98.33
2022-11-27T06:51:32.384Z,96.43
2022-11-27T06:54:00.316Z,95.49
2022-11-27T06:56:28.453Z,94.14
2022-11-27T06:59:00.043Z,92.76
2022-11-27T07:01:30.577Z,90.92
2022-11-27T07:03:57.996Z,89.99
2022-11-27T07:06:26.109Z,88.35
2022-11-27T07:08:54.081Z,86.99
2022-11-27T07:11:23.402Z,86.06
2022-11-27T07:13:51.851Z,85.20
2022-11-27T07:16:18.948Z,84.10
2022-11-27T07:18:49.453Z,83.43
2022-11-27T07:21:16.852Z,82.09
2022-11-27T07:23:46.601Z,80.88
2022-11-27T07:26:18.737Z,80.66
2022-11-27T07:28:45.704Z,80.22
2022-11-27T07:31:17.803Z,77.90
2022-11-27T07:33:44.625Z,76.98
2022-11-27T07:36:14.766Z,76.50
2022-11-27T07:38:41.960Z,75.90
2022-11-27T07:41:09.033Z,74.68
2022-11-27T07:43:36.632Z,72.88
2022-11-27T07:46:05.256Z,71.94
2022-11-27T07:48:32.357Z,72.09
2022-11-27T07:50:58.983Z,71.25
2022-11-27T07:53:25.667Z,70.56
2022-11-27T07:55:52.315Z,70.00
2022-11-27T07:58:18.931Z,69.90
2022-11-27T08:00:45.555Z,68.02
2022-11-27T08:03:12.256Z,67.83
2022-11-27T08:05:38.865Z,65.42
2022-11-27T08:08:05.543Z,64.32
2022-11-27T08:10:35.822Z,62.60
2022-11-27T08:13:02.513Z,61.93
2022-11-27T08:15:29.205Z,61.12
2022-11-27T08:17:55.777Z,60.52
2022-11-27T08:20:22.641Z,59.86
2022-11-27T08:22:49.270Z,59.69
2022-11-27T08:25:16.364Z,59.01
2022-11-27T08:27:43.349Z,57.89
2022-11-27T08:30:10.744Z,56.97
2022-11-27T08:32:41.849Z,56.16
2022-11-27T08:35:10.232Z,55.60
2022-11-27T08:37:37.447Z,54.19
2022-11-27T08:40:06.147Z,52.99
2022-11-27T08:42:32.967Z,52.74
2022-11-27T08:44:59.730Z,51.76
2022-11-27T08:47:26.425Z,51.27
2022-11-27T08:49:53.009Z,50.42
2022-11-27T08:52:20.634Z,49.96
2022-11-27T08:54:47.357Z,50.57
2022-11-27T08:57:15.117Z,50.04
2022-11-27T08:59:42.027Z,49.02
2022-11-27T09:02:12.306Z,47.74
2022-11-27T09:04:39.245Z,46.58
2022-11-27T09:07:06.067Z,46.07
2022-11-27T09:09:32.870Z,45.42
2022-11-27T09:11:59.612Z,43.69
2022-11-27T09:14:26.312Z,42.44
2022-11-27T09:16:53.900Z,41.24
2022-11-27T09:19:21.631Z,39.98
2022-11-27T09:21:49.966Z,39.59
2022-11-27T09:24:16.556Z,37.66
2022-11-27T09:26:44.786Z,35.49
2022-11-27T09:29:11.421Z,33.63
2022-11-27T09:31:38.106Z,32.25
2022-11-27T09:34:05.597Z,30.67
2022-11-27T09:36:32.276Z,28.81
2022-11-27T09:38:59.670Z,26.22
2022-11-27T09:41:47.644Z,23.89
2022-11-27T09:44:35.478Z,21.95
2022-11-27T09:47:12.877Z,20.67
2022-11-27T09:49:44.618Z,19.39
2022-11-27T09:52:49.520Z,17.59
2022-11-27T09:55:37.315Z,14.06
2022-11-27T09:58:23.851Z,17.88
2022-11-27T10:00:50.425Z,17.11
2022-11-27T10:03:21.826Z,15.47
2022-11-27T10:05:57.625Z,14.41
2022-11-27T10:08:46.890Z,12.57
2022-11-27T10:11:16.649Z,12.11
2022-11-27T10:13:55.561Z,9.58
2022-11-27T10:16:44.126Z,8.00
2022-11-27T10:19:21.815Z,6.06
2022-11-27T10:21:57.227Z,5.08
2022-11-27T10:24:48.264Z,3.22
2022-11-27T10:27:25.922Z,2.44
2022-11-27T10:29:56.038Z,1.07
2022-11-27T10:32:54.737Z,0.00
2022-11-27T10:35:21.035Z,0.00
2022-11-27T10:38:20.078Z,0.00
2022-11-27T10:40:52.019Z,0.00
2022-11-27T10:43:21.310Z,0.00
2022-11-27T10:45:57.790Z,0.00
2022-11-27T10:48:25.048Z,0.00
2022-11-27T10:50:51.721Z,0.00
2022-11-27T10:53:36.445Z,0.00
2022-11-27T10:56:38.711Z,0.00
2022-11-27T10:59:14.081Z,0.00
2022-11-27T11:01:53.248Z,0.00
2022-11-27T11:04:54.511Z,0.00
2022-11-27T11:07:26.052Z,0.00
2022-11-27T11:09:54.235Z,0.00
2022-11-27T11:12:22.740Z,0.00
2022-11-27T11:14:55.553Z,0.00
2022-11-27T11:17:27.425Z,0.00
2022-11-27T11:19:54.334Z,0.00
2022-11-27T11:22:21.455Z,0.00
2022-11-27T11:24:49.796Z,0.00
2022-11-27T11:27:21.405Z,0.00
2022-11-27T11:29:54.609Z,0.00
2022-11-27T11:32:21.185Z,0.00
2022-11-27T11:35:00.648Z,0.00
2022-11-27T11:37:30.958Z,0.00
2022-11-27T11:40:01.607Z,0.00
2022-11-27T11:42:31.233Z,0.00
2022-11-27T11:45:02.815Z,0.00
2022-11-27T11:47:29.544Z,0.00
2022-11-27T11:49:56.641Z,0.00
2022-11-27T11:52:38.481Z,0.00
2022-11-27T11:55:12.125Z,0.00
2022-11-27T11:58:11.140Z,0.00
2022-11-27T12:01:11.705Z,0.00
2022-11-27T12:04:05.972Z,0.00
2022-11-27T12:06:46.136Z,0.00
2022-11-27T12:09:22.056Z,0.00
2022-11-27T12:11:54.703Z,0.00
2022-11-27T12:14:43.346Z,0.00
2022-11-27T12:17:32.783Z,0.00
2022-11-27T12:20:13.138Z,0.00
2022-11-27T12:22:52.648Z,0.00
2022-11-27T12:25:22.474Z,0.00
2022-11-27T12:27:56.824Z,0.00
2022-11-27T12:30:26.526Z,0.00
2022-11-27T12:33:05.638Z,0.00
2022-11-27T12:36:00.123Z,0.00
2022-11-27T12:39:02.073Z,0.00
2022-11-27T12:41:47.029Z,0.00
2022-11-27T12:44:39.989Z,0.00
2022-11-27T12:47:26.879Z,0.00
2022-11-27T12:50:00.675Z,0.00
2022-11-27T12:52:34.907Z,0.00
2022-11-27T12:55:06.608Z,0.00
2022-11-27T12:57:51.840Z,0.00
2022-11-27T13:00:20.805Z,0.00
2022-11-27T13:02:57.727Z,0.00
2022-11-27T13:05:27.094Z,0.00
2022-11-27T13:08:02.705Z,0.00
2022-11-27T13:10:42.608Z,0.00
2022-11-27T13:13:22.416Z,0.00
2022-11-27T13:15:56.646Z,0.00
2022-11-27T13:18:33.006Z,0.00
2022-11-27T13:21:02.648Z,0.00
2022-11-27T13:23:33.084Z,0.00
2022-11-27T13:26:02.342Z,0.00
2022-11-27T13:28:40.158Z,0.00
2022-11-27T13:31:07.588Z,0.00
2022-11-27T13:33:43.206Z,0.00
2022-11-27T13:36:22.224Z,0.00
2022-11-27T13:39:07.180Z,0.00
2022-11-27T13:41:40.254Z,0.00
2022-11-27T13:44:24.949Z,0.00
2022-11-27T13:46:54.940Z,0.00
2022-11-27T13:49:43.340Z,0.00
2022-11-27T13:52:12.853Z,0.00
2022-11-27T13:54:40.679Z,0.00
2022-11-27T13:57:15.828Z,0.00
2022-11-27T13:59:58.178Z,0.00
2022-11-27T14:02:25.945Z,0.00
2022-11-27T14:04:56.471Z,0.00
2022-11-27T14:07:24.212Z,0.00
2022-11-27T14:09:56.218Z,0.00
2022-11-27T14:12:28.399Z,0.00
2022-11-27T14:15:08.782Z,0.00
2022-11-27T14:17:40.085Z,0.00
2022-11-27T14:20:21.468Z,0.00
2022-11-27T14:25:37.782Z,0.00
2022-11-27T14:28:17.388Z,0.00
2022-11-27T14:30:47.645Z,0.00
2022-11-27T14:33:28.813Z,0.00
2022-11-27T14:36:00.520Z,0.00
2022-11-27T14:38:28.441Z,0.00
2022-11-27T14:41:08.475Z,0.00
2022-11-27T14:43:35.249Z,0.00
2022-11-27T14:46:02.961Z,0.00
2022-11-27T14:49:05.157Z,0.00
2022-11-27T14:51:35.168Z,0.00
2022-11-27T14:54:04.466Z,0.00
2022-11-27T14:56:37.640Z,0.00
2022-11-27T14:59:04.351Z,0.00
2022-11-27T15:01:33.964Z,0.00
2022-11-27T15:04:06.732Z,0.00
2022-11-27T15:06:37.815Z,0.00
2022-11-27T15:09:30.305Z,0.00
2022-11-27T15:11:57.028Z,0.00
2022-11-27T15:14:25.933Z,0.00
2022-11-27T15:16:53.588Z,0.00
2022-11-27T15:19:36.000Z,0.00
2022-11-27T15:22:03.189Z,0.00
2022-11-27T15:24:37.733Z,0.00
2022-11-27T15:27:22.780Z,0.00
2022-11-27T15:29:49.407Z,0.00
2022-11-27T15:32:27.917Z,0.00
2022-11-27T15:34:54.857Z,0.00
2022-11-27T15:37:35.054Z,0.00
2022-11-27T15:40:02.044Z,0.00
2022-11-27T15:42:28.773Z,0.00
2022-11-27T15:44:57.312Z,0.00
2022-11-27T15:47:33.369Z,0.00
2022-11-27T15:50:00.421Z,0.00
2022-11-27T15:52:27.492Z,0.00
2022-11-27T15:54:55.418Z,0.00
2022-11-27T15:57:22.304Z,0.00
2022-11-27T15:59:48.915Z,0.00
2022-11-27T16:02:18.020Z,0.00
2022-11-27T16:04:45.146Z,0.00
2022-11-27T16:07:11.852Z,0.00
2022-11-27T16:09:39.760Z,0.00
2022-11-27T16:12:06.767Z,0.00
2022-11-27T16:14:34.905Z,0.00
2022-11-27T16:17:01.813Z,0.00
2022-11-27T16:19:28.725Z,0.00
2022-11-27T16:21:55.479Z,0.00
2022-11-27T16:24:22.321Z,0.00
2022-11-27T16:26:48.886Z,0.00
2022-11-27T16:29:15.562Z,0.00
2022-11-27T16:31:42.400Z,0.00
2022-11-27T16:34:09.372Z,0.00
2022-11-27T16:36:41.384Z,0.00
2022-11-27T16:39:10.051Z,0.00
2022-11-27T16:41:37.220Z,0.00
2022-11-27T16:44:10.581Z,0.00
2022-11-27T16:46:38.930Z,0.00
2022-11-27T16:49:06.765Z,0.00
2022-11-27T16:51:34.586Z,0.00
2022-11-27T16:54:03.814Z,0.00
2022-11-27T16:56:32.361Z,0.00
2022-11-27T16:59:02.995Z,0.00
2022-11-27T17:01:34.310Z,0.00
2022-11-27T17:04:03.469Z,0.00
2022-11-27T17:06:31.879Z,0.00
2022-11-27T17:09:00.168Z,0.00
2022-11-27T17:11:29.360Z,0.00
2022-11-27T17:13:59.640Z,0.00
2022-11-27T17:16:26.458Z,0.00
2022-11-27T17:18:53.538Z,0.00
2022-11-27T17:21:28.744Z,0.00
2022-11-27T17:23:56.648Z,0.00
2022-11-27T17:26:24.894Z,0.00
2022-11-27T17:28:55.568Z,0.00
2022-11-27T17:31:25.337Z,0.00
2022-11-27T17:33:54.234Z,0.00
2022-11-27T17:36:21.013Z,0.00
2022-11-27T17:38:47.709Z,0.00
2022-11-27T17:41:14.775Z,0.00
2022-11-27T17:43:42.326Z,0.00
2022-11-27T17:46:17.058Z,0.00
2022-11-27T17:48:44.308Z,0.00
2022-11-27T17:51:11.302Z,0.00
2022-11-27T17:53:37.945Z,0.00
2022-11-27T17:56:10.449Z,0.00
2022-11-27T17:58:37.499Z,0.00
2022-11-27T18:01:05.405Z,0.00
2022-11-27T18:03:35.899Z,0.00
2022-11-27T18:06:04.956Z,0.00
2022-11-27T18:08:32.177Z,0.00
2022-11-27T18:11:05.072Z,0.00
2022-11-27T18:13:32.573Z,0.00
2022-11-27T18:16:20.712Z,0.00
2022-11-27T18:18:49.478Z,0.00
2022-11-27T18:21:18.701Z,0.00
2022-11-27T18:24:20.663Z,0.00
2022-11-27T18:27:00.599Z,0.00
2022-11-27T18:29:20.767Z,0.00
2022-11-27T18:31:47.749Z,0.00
2022-11-27T18:34:14.491Z,0.00
2022-11-27T18:36:41.077Z,0.00
2022-11-27T18:39:07.760Z,0.00
2022-11-27T18:41:34.804Z,0.00
2022-11-27T18:44:01.761Z,0.00
2022-11-27T18:46:28.520Z,0.00
2022-11-27T18:48:55.216Z,0.00
2022-11-27T18:51:24.265Z,0.00
2022-11-27T18:53:51.951Z,0.00
2022-11-27T18:56:21.987Z,0.00
2022-11-27T18:58:49.171Z,0.00
2022-11-27T19:01:19.131Z,0.00
2022-11-27T19:03:46.382Z,0.00
2022-11-27T19:06:14.447Z,0.00
2022-11-27T19:08:41.762Z,0.00
2022-11-27T19:11:11.728Z,0.00
2022-11-27T19:13:39.141Z,0.00
2022-11-27T19:16:11.564Z,0.00
2022-11-27T19:18:38.325Z,0.00
2022-11-27T19:21:10.104Z,0.00
2022-11-27T19:23:39.353Z,0.00
2022-11-27T19:26:18.300Z,0.00
2022-11-27T19:28:48.376Z,0.00
2022-11-27T19:31:16.394Z,0.00
2022-11-27T19:33:43.588Z,0.00
2022-11-27T19:36:13.793Z,0.00
2022-11-27T19:38:42.007Z,0.00
2022-11-27T19:41:16.859Z,0.00
2022-11-27T19:43:43.766Z,0.00
2022-11-27T19:46:37.339Z,0.00
2022-11-27T19:49:07.266Z,0.00
2022-11-27T19:51:36.435Z,0.00
2022-11-27T19:54:07.060Z,0.00
2022-11-27T19:56:39.938Z,0.00
2022-11-27T19:59:07.142Z,0.00
2022-11-27T20:01:34.099Z,0.00
2022-11-27T20:04:02.066Z,0.00
2022-11-27T20:06:28.784Z,0.00
2022-11-27T20:09:01.076Z,0.00
2022-11-27T20:11:34.305Z,0.00
2022-11-27T20:14:01.561Z,0.00
2022-11-27T20:16:28.270Z,0.00
2022-11-27T20:18:55.404Z,0.00
2022-11-27T20:21:24.825Z,0.00
2022-11-27T20:23:52.626Z,0.00
2022-11-27T20:26:22.102Z,0.00
2022-11-27T20:28:49.396Z,0.00
2022-11-27T20:31:22.278Z,0.00
2022-11-27T20:33:49.032Z,0.00
2022-11-27T20:36:17.674Z,0.00
2022-11-27T20:38:45.273Z,0.00
2022-11-27T20:41:14.640Z,0.00
2022-11-27T20:43:41.556Z,0.00
2022-11-27T20:46:08.244Z,0.00
2022-11-27T20:48:35.273Z,0.00
2022-11-27T20:51:10.734Z,0.00
2022-11-27T20:53:37.998Z,0.00
2022-11-27T20:56:06.145Z,0.00
2022-11-27T20:58:34.879Z,0.00
2022-11-27T21:01:20.117Z,0.00
2022-11-27T21:03:49.352Z,0.00
2022-11-27T21:06:17.484Z,0.00
2022-11-27T21:08:44.389Z,0.00
2022-11-27T21:11:16.002Z,0.00
2022-11-27T21:13:43.857Z,0.00
2022-11-27T21:16:12.459Z,0.00
2022-11-27T21:18:39.841Z,0.00
2022-11-27T21:21:08.461Z,0.00
2022-11-27T21:23:35.454Z,0.00
2022-11-27T21:26:02.020Z,0.00
2022-11-27T21:28:30.752Z,0.00
2022-11-27T21:31:05.778Z,0.00
2022-11-27T21:33:32.574Z,0.00
2022-11-27T21:35:59.998Z,0.00
2022-11-27T21:38:27.120Z,0.00
2022-11-27T21:40:54.163Z,0.00
2022-11-27T21:43:20.769Z,0.00
2022-11-27T21:45:48.313Z,0.00
2022-11-27T21:48:14.919Z,0.00
2022-11-27T21:50:41.595Z,0.00
2022-11-27T21:53:08.224Z,0.00
2022-11-27T21:55:39.349Z,0.00
2022-11-27T21:58:06.550Z,0.00
2022-11-27T22:00:33.231Z,0.00
2022-11-27T22:02:59.813Z,0.00
2022-11-27T22:05:26.420Z,0.00
2022-11-27T22:07:53.110Z,0.00
2022-11-27T22:10:19.776Z,0.00
2022-11-27T22:12:46.383Z,0.00
2022-11-27T22:15:12.940Z,0.00
2022-11-27T22:17:39.605Z,0.00
2022-11-27T22:20:06.895Z,0.00
2022-11-27T22:22:33.999Z,0.00
2022-11-27T22:25:04.180Z,0.00
2022-11-27T22:27:31.043Z,0.00
2022-11-27T22:29:57.636Z,0.00
2022-11-27T22:32:24.307Z,0.00
2022-11-27T22:34:51.550Z,0.00
2022-11-27T22:37:18.194Z,0.00
2022-11-27T22:39:44.787Z,0.00
2022-11-27T22:42:12.300Z,0.00
2022-11-27T22:44:39.341Z,0.00
2022-11-27T22:47:05.995Z,0.00
2022-11-27T22:49:32.682Z,0.00
2022-11-27T22:51:59.377Z,0.00
2022-11-27T22:54:26.031Z,0.00
2022-11-27T22:56:54.266Z,0.00
2022-11-27T22:59:36.088Z,0.00
2022-11-27T23:02:06.324Z,0.00
2022-11-27T23:04:34.421Z,0.00
2022-11-27T23:07:01.751Z,0.00
2022-11-27T23:09:29.247Z,0.00
2022-11-27T23:11:56.972Z,0.00
2022-11-27T23:14:24.715Z,0.00
2022-11-27T23:16:51.391Z,0.00
2022-11-27T23:19:18.504Z,0.00
2022-11-27T23:21:45.219Z,0.00
2022-11-27T23:24:13.679Z,0.00
2022-11-27T23:26:40.328Z,0.00
2022-11-27T23:29:07.023Z,0.00
2022-11-27T23:31:35.276Z,0.00
2022-11-27T23:34:05.266Z,0.00
2022-11-27T23:36:32.281Z,0.00
2022-11-27T23:39:04.457Z,0.00
2022-11-27T23:41:31.413Z,0.00
2022-11-27T23:43:58.095Z,0.00
2022-11-27T23:46:27.640Z,0.00
2022-11-27T23:48:55.658Z,0.00
2022-11-27T23:51:26.024Z,0.00
2022-11-27T23:53:53.306Z,0.00
2022-11-27T23:56:25.184Z,0.00
2022-11-27T23:58:52.127Z,0.00
